MUHA/HAV METAR and TAF weather

Enter ICAO airport designator
Station Type Date Time Source
MUHA METAR 2022/06/26 06:50 UTC NOAA

MUHA 260650Z 05001KT 9000 FEW030 22/22 Q1017


Station Type Date Time Source
MUHA Decoded METAR 2022/06/26 06:50 UTC NOAA

Aeropuerto Jose Marti, Rancho-Boyeros, Habana, Cuba (MUHA) 22-59N 082-24W 75M
Jun 26, 2022 - 02:50 AM EDT / 2022.06.26 0650 UTC
Wind: from the NE (050 degrees) at 1 MPH (1 KT):0
Visibility: 5 mile(s):0
Sky conditions: mostly clear
Temperature: 71 F (22 C)
Dew Point: 71 F (22 C)
Relative Humidity: 100%
Pressure (altimeter): 30.03 in. Hg (1017 hPa)
ob: MUHA 260650Z 05001KT 9000 FEW030 22/22 Q1017
cycle: 7

Station Type Date Time Source
MUHA TAF 2022/06/26 06:04 UTC NOAA

TAF MUHA 260500Z 2606/2706 VRB03KT 9000 FEW030
TEMPO 2618/2700 VRB10KT 3000 TSRA SCT018CB BKN020
BECMG 2704/2706 VRB03KT

Example: see airport list